sensor_id;sensor_type;location;lat;lon;timestamp;temperature;humidity
2202;DHT22;1107;48.654;9.250;2024-01-16T00:02:04;-1.40;99.90
2202;DHT22;1107;48.654;9.250;2024-01-16T00:04:30;-1.40;99.90
2202;DHT22;1107;48.654;9.250;2024-01-16T00:06:58;-1.40;99.90
2202;DHT22;1107;48.654;9.250;2024-01-16T00:09:25;-1.30;99.90
2202;DHT22;1107;48.654;9.250;2024-01-16T00:11:52;-1.40;99.90
2202;DHT22;1107;48.654;9.250;2024-01-16T00:14:19;-1.40;99.90
2202;DHT22;1107;48.654;9.250;2024-01-16T00:16:45;-1.40;99.90
2202;DHT22;1107;48.654;9.250;2024-01-16T00:19:13;-1.40;99.90
2202;DHT22;1107;48.654;9.250;2024-01-16T00:21:39;-1.40;99.90
2202;DHT22;1107;48.654;9.250;2024-01-16T00:24:08;-1.40;99.90
2202;DHT22;1107;48.654;9.250;2024-01-16T00:26:35;-1.40;99.90
2202;DHT22;1107;48.654;9.250;2024-01-16T00:29:02;-1.40;99.90
2202;DHT22;1107;48.654;9.250;2024-01-16T00:31:28;-1.40;99.90
2202;DHT22;1107;48.654;9.250;2024-01-16T00:33:55;-1.40;99.90
2202;DHT22;1107;48.654;9.250;2024-01-16T00:36:22;-1.40;99.90
2202;DHT22;1107;48.654;9.250;2024-01-16T00:38:49;-1.40;99.90
2202;DHT22;1107;48.654;9.250;2024-01-16T00:41:17;-1.40;99.90
2202;DHT22;1107;48.654;9.250;2024-01-16T00:43:44;-1.40;99.90
2202;DHT22;1107;48.654;9.250;2024-01-16T00:46:11;-1.50;99.90
2202;DHT22;1107;48.654;9.250;2024-01-16T00:48:37;-1.60;99.90
2202;DHT22;1107;48.654;9.250;2024-01-16T00:51:04;-1.60;99.90
2202;DHT22;1107;48.654;9.250;2024-01-16T00:53:31;-1.60;99.90
2202;DHT22;1107;48.654;9.250;2024-01-16T00:55:57;-1.70;99.90
2202;DHT22;1107;48.654;9.250;2024-01-16T00:58:25;-1.70;99.90
2202;DHT22;1107;48.654;9.250;2024-01-16T01:00:52;-1.70;99.90
2202;DHT22;1107;48.654;9.250;2024-01-16T01:03:19;-1.70;99.90
2202;DHT22;1107;48.654;9.250;2024-01-16T01:05:46;-1.70;99.90
2202;DHT22;1107;48.654;9.250;2024-01-16T01:08:13;-1.70;99.90
2202;DHT22;1107;48.654;9.250;2024-01-16T01:10:40;-1.60;99.90
2202;DHT22;1107;48.654;9.250;2024-01-16T01:13:06;-1.60;99.90
2202;DHT22;1107;48.654;9.250;2024-01-16T01:15:34;-1.60;99.90
2202;DHT22;1107;48.654;9.250;2024-01-16T01:18:01;-1.50;99.90
2202;DHT22;1107;48.654;9.250;2024-01-16T01:20:29;-1.50;99.90
2202;DHT22;1107;48.654;9.250;2024-01-16T01:22:56;-1.40;99.90
2202;DHT22;1107;48.654;9.250;2024-01-16T01:25:23;-1.40;99.90
2202;DHT22;1107;48.654;9.250;2024-01-16T01:27:51;-1.40;99.90
2202;DHT22;1107;48.654;9.250;2024-01-16T01:30:18;-1.40;99.90
2202;DHT22;1107;48.654;9.250;2024-01-16T01:32:46;-1.40;99.90
2202;DHT22;1107;48.654;9.250;2024-01-16T01:35:13;-1.40;99.90
2202;DHT22;1107;48.654;9.250;2024-01-16T01:37:39;-1.40;99.90
2202;DHT22;1107;48.654;9.250;2024-01-16T01:40:07;-1.40;99.90
2202;DHT22;1107;48.654;9.250;2024-01-16T01:42:34;-1.40;99.90
2202;DHT22;1107;48.654;9.250;2024-01-16T01:45:00;-1.30;99.90
2202;DHT22;1107;48.654;9.250;2024-01-16T01:47:27;-1.40;99.90
2202;DHT22;1107;48.654;9.250;2024-01-16T01:49:55;-1.40;99.90
2202;DHT22;1107;48.654;9.250;2024-01-16T01:52:22;-1.40;99.90
2202;DHT22;1107;48.654;9.250;2024-01-16T01:54:49;-1.40;99.90
2202;DHT22;1107;48.654;9.250;2024-01-16T01:57:17;-1.40;99.90
2202;DHT22;1107;48.654;9.250;2024-01-16T01:59:44;-1.40;99.90
2202;DHT22;1107;48.654;9.250;2024-01-16T02:02:11;-1.40;99.90
2202;DHT22;1107;48.654;9.250;2024-01-16T02:04:38;-1.40;99.90
2202;DHT22;1107;48.654;9.250;2024-01-16T02:07:07;-1.40;99.90
2202;DHT22;1107;48.654;9.250;2024-01-16T02:09:34;-1.40;99.90
2202;DHT22;1107;48.654;9.250;2024-01-16T02:12:01;-1.40;99.90
2202;DHT22;1107;48.654;9.250;2024-01-16T02:14:28;-1.40;99.90
2202;DHT22;1107;48.654;9.250;2024-01-16T02:16:54;-1.50;99.90
2202;DHT22;1107;48.654;9.250;2024-01-16T02:19:21;-1.50;99.90
2202;DHT22;1107;48.654;9.250;2024-01-16T02:21:50;-1.50;99.90
2202;DHT22;1107;48.654;9.250;2024-01-16T02:24:18;-1.50;99.90
2202;DHT22;1107;48.654;9.250;2024-01-16T02:26:45;-1.60;99.90
2202;DHT22;1107;48.654;9.250;2024-01-16T02:29:12;-1.60;99.90
2202;DHT22;1107;48.654;9.250;2024-01-16T02:31:39;-1.60;99.90
2202;DHT22;1107;48.654;9.250;2024-01-16T02:34:06;-1.60;99.90
2202;DHT22;1107;48.654;9.250;2024-01-16T02:36:32;-1.60;99.90
2202;DHT22;1107;48.654;9.250;2024-01-16T02:38:59;-1.60;99.90
2202;DHT22;1107;48.654;9.250;2024-01-16T02:41:27;-1.60;99.90
2202;DHT22;1107;48.654;9.250;2024-01-16T02:43:54;-1.60;99.90
2202;DHT22;1107;48.654;9.250;2024-01-16T02:46:21;-1.60;99.90
2202;DHT22;1107;48.654;9.250;2024-01-16T02:48:48;-1.70;99.90
2202;DHT22;1107;48.654;9.250;2024-01-16T02:51:14;-1.60;99.90
2202;DHT22;1107;48.654;9.250;2024-01-16T02:53:42;-1.70;99.90
2202;DHT22;1107;48.654;9.250;2024-01-16T02:56:08;-1.70;99.90
2202;DHT22;1107;48.654;9.250;2024-01-16T02:58:37;-1.70;99.90
2202;DHT22;1107;48.654;9.250;2024-01-16T03:01:04;-1.70;99.90
2202;DHT22;1107;48.654;9.250;2024-01-16T03:03:30;-1.70;99.90
2202;DHT22;1107;48.654;9.250;2024-01-16T03:05:57;-1.70;99.90
2202;DHT22;1107;48.654;9.250;2024-01-16T03:08:24;-1.70;99.90
2202;DHT22;1107;48.654;9.250;2024-01-16T03:10:51;-1.70;99.90
2202;DHT22;1107;48.654;9.250;2024-01-16T03:13:18;-1.60;99.90
2202;DHT22;1107;48.654;9.250;2024-01-16T03:15:46;-1.70;99.90
2202;DHT22;1107;48.654;9.250;2024-01-16T03:18:13;-1.70;99.90
2202;DHT22;1107;48.654;9.250;2024-01-16T03:20:40;-1.80;99.90
2202;DHT22;1107;48.654;9.250;2024-01-16T03:23:07;-1.80;99.90
2202;DHT22;1107;48.654;9.250;2024-01-16T03:25:34;-1.90;99.90
2202;DHT22;1107;48.654;9.250;2024-01-16T03:28:04;-2.00;99.90
2202;DHT22;1107;48.654;9.250;2024-01-16T03:30:33;-2.00;99.90
2202;DHT22;1107;48.654;9.250;2024-01-16T03:33:02;-2.10;99.90
2202;DHT22;1107;48.654;9.250;2024-01-16T03:35:29;-2.20;99.90
2202;DHT22;1107;48.654;9.250;2024-01-16T03:37:56;-2.10;99.90
2202;DHT22;1107;48.654;9.250;2024-01-16T03:40:22;-2.10;99.90
2202;DHT22;1107;48.654;9.250;2024-01-16T03:42:49;-2.20;99.90
2202;DHT22;1107;48.654;9.250;2024-01-16T03:45:16;-2.20;99.90
2202;DHT22;1107;48.654;9.250;2024-01-16T03:47:43;-2.20;99.90
2202;DHT22;1107;48.654;9.250;2024-01-16T03:50:11;-2.30;99.90
2202;DHT22;1107;48.654;9.250;2024-01-16T03:52:38;-2.40;99.90
2202;DHT22;1107;48.654;9.250;2024-01-16T03:55:05;-2.40;99.90
2202;DHT22;1107;48.654;9.250;2024-01-16T03:57:32;-2.50;99.90
2202;DHT22;1107;48.654;9.250;2024-01-16T03:59:58;-2.50;99.90
2202;DHT22;1107;48.654;9.250;2024-01-16T04:02:25;-2.50;99.90
2202;DHT22;1107;48.654;9.250;2024-01-16T04:04:52;-2.50;99.90
2202;DHT22;1107;48.654;9.250;2024-01-16T04:07:20;-2.50;99.90
2202;DHT22;1107;48.654;9.250;2024-01-16T04:09:48;-2.50;99.90
2202;DHT22;1107;48.654;9.250;2024-01-16T04:12:15;-2.40;99.90
2202;DHT22;1107;48.654;9.250;2024-01-16T04:14:42;-2.50;99.90
2202;DHT22;1107;48.654;9.250;2024-01-16T04:17:09;-2.50;99.90
2202;DHT22;1107;48.654;9.250;2024-01-16T04:19:36;-2.60;99.90
2202;DHT22;1107;48.654;9.250;2024-01-16T04:22:04;-2.60;99.90
2202;DHT22;1107;48.654;9.250;2024-01-16T04:24:32;-2.60;99.90
2202;DHT22;1107;48.654;9.250;2024-01-16T04:26:59;-2.60;99.90
2202;DHT22;1107;48.654;9.250;2024-01-16T04:29:26;-2.70;99.90
2202;DHT22;1107;48.654;9.250;2024-01-16T04:31:52;-2.60;99.90
2202;DHT22;1107;48.654;9.250;2024-01-16T04:34:19;-2.80;99.90
2202;DHT22;1107;48.654;9.250;2024-01-16T04:36:46;-2.80;99.90
2202;DHT22;1107;48.654;9.250;2024-01-16T04:39:13;-2.80;99.90
2202;DHT22;1107;48.654;9.250;2024-01-16T04:41:41;-2.80;99.90
2202;DHT22;1107;48.654;9.250;2024-01-16T04:44:08;-2.90;99.90
2202;DHT22;1107;48.654;9.250;2024-01-16T04:46:34;-2.90;99.90
2202;DHT22;1107;48.654;9.250;2024-01-16T04:49:01;-2.90;99.90
2202;DHT22;1107;48.654;9.250;2024-01-16T04:51:28;-2.90;99.90
2202;DHT22;1107;48.654;9.250;2024-01-16T04:53:54;-2.90;99.90
2202;DHT22;1107;48.654;9.250;2024-01-16T04:56:21;-3.00;99.90
2202;DHT22;1107;48.654;9.250;2024-01-16T04:58:49;-3.00;99.90
2202;DHT22;1107;48.654;9.250;2024-01-16T05:01:17;-3.00;99.90
2202;DHT22;1107;48.654;9.250;2024-01-16T05:03:44;-3.10;99.90
2202;DHT22;1107;48.654;9.250;2024-01-16T05:06:13;-3.10;99.90
2202;DHT22;1107;48.654;9.250;2024-01-16T05:08:41;-3.10;99.90
2202;DHT22;1107;48.654;9.250;2024-01-16T05:11:07;-3.10;99.90
2202;DHT22;1107;48.654;9.250;2024-01-16T05:13:34;-3.10;99.90
2202;DHT22;1107;48.654;9.250;2024-01-16T05:16:02;-3.20;99.90
2202;DHT22;1107;48.654;9.250;2024-01-16T05:18:29;-3.20;99.90
2202;DHT22;1107;48.654;9.250;2024-01-16T05:20:58;-3.30;99.90
2202;DHT22;1107;48.654;9.250;2024-01-16T05:23:24;-3.40;99.90
2202;DHT22;1107;48.654;9.250;2024-01-16T05:25:51;-3.40;99.90
2202;DHT22;1107;48.654;9.250;2024-01-16T05:28:18;-3.50;99.90
2202;DHT22;1107;48.654;9.250;2024-01-16T05:30:44;-3.50;99.90
2202;DHT22;1107;48.654;9.250;2024-01-16T05:33:13;-3.50;99.90
2202;DHT22;1107;48.654;9.250;2024-01-16T05:35:39;-3.50;99.90
2202;DHT22;1107;48.654;9.250;2024-01-16T05:38:06;-3.50;99.90
2202;DHT22;1107;48.654;9.250;2024-01-16T05:40:33;-3.50;99.90
2202;DHT22;1107;48.654;9.250;2024-01-16T05:42:59;-3.50;99.90
2202;DHT22;1107;48.654;9.250;2024-01-16T05:45:27;-3.50;99.90
2202;DHT22;1107;48.654;9.250;2024-01-16T05:47:54;-3.50;99.90
2202;DHT22;1107;48.654;9.250;2024-01-16T05:50:22;-3.40;99.90
2202;DHT22;1107;48.654;9.250;2024-01-16T05:52:48;-3.40;99.90
2202;DHT22;1107;48.654;9.250;2024-01-16T05:55:15;-3.40;99.90
2202;DHT22;1107;48.654;9.250;2024-01-16T05:57:42;-3.30;99.90
2202;DHT22;1107;48.654;9.250;2024-01-16T06:00:09;-3.30;99.90
2202;DHT22;1107;48.654;9.250;2024-01-16T06:02:36;-3.30;99.90
2202;DHT22;1107;48.654;9.250;2024-01-16T06:05:03;-3.30;99.90
2202;DHT22;1107;48.654;9.250;2024-01-16T06:07:31;-3.30;99.90
2202;DHT22;1107;48.654;9.250;2024-01-16T06:09:57;-3.30;99.90
2202;DHT22;1107;48.654;9.250;2024-01-16T06:12:24;-3.30;99.90
2202;DHT22;1107;48.654;9.250;2024-01-16T06:14:51;-3.20;99.90
2202;DHT22;1107;48.654;9.250;2024-01-16T06:17:18;-3.20;99.90
2202;DHT22;1107;48.654;9.250;2024-01-16T06:19:44;-3.10;99.90
2202;DHT22;1107;48.654;9.250;2024-01-16T06:22:12;-3.20;99.90
2202;DHT22;1107;48.654;9.250;2024-01-16T06:24:40;-3.10;99.90
2202;DHT22;1107;48.654;9.250;2024-01-16T06:27:07;-3.10;99.90
2202;DHT22;1107;48.654;9.250;2024-01-16T06:29:33;-3.10;99.90
2202;DHT22;1107;48.654;9.250;2024-01-16T06:32:00;-3.00;99.90
2202;DHT22;1107;48.654;9.250;2024-01-16T06:34:27;-3.00;99.90
2202;DHT22;1107;48.654;9.250;2024-01-16T06:36:54;-3.00;99.90
2202;DHT22;1107;48.654;9.250;2024-01-16T06:39:20;-3.00;99.90
2202;DHT22;1107;48.654;9.250;2024-01-16T06:41:48;-2.90;99.90
2202;DHT22;1107;48.654;9.250;2024-01-16T06:44:15;-2.90;99.90
2202;DHT22;1107;48.654;9.250;2024-01-16T06:46:42;-2.90;99.90
2202;DHT22;1107;48.654;9.250;2024-01-16T06:49:09;-2.80;99.90
2202;DHT22;1107;48.654;9.250;2024-01-16T06:51:35;-2.60;99.90
2202;DHT22;1107;48.654;9.250;2024-01-16T06:54:02;-2.80;99.90
2202;DHT22;1107;48.654;9.250;2024-01-16T06:56:30;-2.60;99.90
2202;DHT22;1107;48.654;9.250;2024-01-16T06:58:58;-2.90;99.90
2202;DHT22;1107;48.654;9.250;2024-01-16T07:01:25;-2.80;99.90
2202;DHT22;1107;48.654;9.250;2024-01-16T07:03:51;-2.80;99.90
2202;DHT22;1107;48.654;9.250;2024-01-16T07:06:18;-2.80;99.90
2202;DHT22;1107;48.654;9.250;2024-01-16T07:08:45;-2.80;99.90
2202;DHT22;1107;48.654;9.250;2024-01-16T07:11:12;-2.80;99.90
2202;DHT22;1107;48.654;9.250;2024-01-16T07:13:39;-2.80;99.90
2202;DHT22;1107;48.654;9.250;2024-01-16T07:16:08;-2.80;99.90
2202;DHT22;1107;48.654;9.250;2024-01-16T07:18:35;-2.80;99.90
2202;DHT22;1107;48.654;9.250;2024-01-16T07:21:02;-2.80;99.90
2202;DHT22;1107;48.654;9.250;2024-01-16T07:23:29;-2.80;99.90
2202;DHT22;1107;48.654;9.250;2024-01-16T07:25:56;-2.80;99.90
2202;DHT22;1107;48.654;9.250;2024-01-16T07:28:23;-2.80;99.90
2202;DHT22;1107;48.654;9.250;2024-01-16T07:30:52;-2.80;99.90
2202;DHT22;1107;48.654;9.250;2024-01-16T07:33:20;-2.80;99.90
2202;DHT22;1107;48.654;9.250;2024-01-16T07:35:47;-2.80;99.90
2202;DHT22;1107;48.654;9.250;2024-01-16T07:38:14;-2.80;99.90
2202;DHT22;1107;48.654;9.250;2024-01-16T07:40:41;-2.80;99.90
2202;DHT22;1107;48.654;9.250;2024-01-16T07:43:07;-2.80;99.90
2202;DHT22;1107;48.654;9.250;2024-01-16T07:45:34;-2.70;99.90
2202;DHT22;1107;48.654;9.250;2024-01-16T07:48:01;-2.70;99.90
2202;DHT22;1107;48.654;9.250;2024-01-16T07:50:29;-2.60;99.90
2202;DHT22;1107;48.654;9.250;2024-01-16T07:52:56;-2.60;99.90
2202;DHT22;1107;48.654;9.250;2024-01-16T07:55:23;-2.60;99.90
2202;DHT22;1107;48.654;9.250;2024-01-16T07:57:50;-2.60;99.90
2202;DHT22;1107;48.654;9.250;2024-01-16T08:00:17;-2.60;99.90
2202;DHT22;1107;48.654;9.250;2024-01-16T08:02:43;-2.60;99.90
2202;DHT22;1107;48.654;9.250;2024-01-16T08:05:10;-2.50;99.90
2202;DHT22;1107;48.654;9.250;2024-01-16T08:07:38;-2.40;99.90
2202;DHT22;1107;48.654;9.250;2024-01-16T08:10:05;-2.30;99.90
2202;DHT22;1107;48.654;9.250;2024-01-16T08:12:32;-2.20;99.90
2202;DHT22;1107;48.654;9.250;2024-01-16T08:14:59;-2.20;99.90
2202;DHT22;1107;48.654;9.250;2024-01-16T08:17:25;-2.20;99.90
2202;DHT22;1107;48.654;9.250;2024-01-16T08:19:52;-2.00;99.90
2202;DHT22;1107;48.654;9.250;2024-01-16T08:22:19;-2.20;99.90
2202;DHT22;1107;48.654;9.250;2024-01-16T08:24:47;-2.10;99.90
2202;DHT22;1107;48.654;9.250;2024-01-16T08:27:14;-2.00;99.90
2202;DHT22;1107;48.654;9.250;2024-01-16T08:29:42;-1.90;99.90
2202;DHT22;1107;48.654;9.250;2024-01-16T08:32:09;-1.90;99.90
2202;DHT22;1107;48.654;9.250;2024-01-16T08:34:35;-1.90;99.90
2202;DHT22;1107;48.654;9.250;2024-01-16T08:37:02;-1.90;99.90
2202;DHT22;1107;48.654;9.250;2024-01-16T08:39:30;-1.90;99.90
2202;DHT22;1107;48.654;9.250;2024-01-16T08:42:00;-1.90;99.90
2202;DHT22;1107;48.654;9.250;2024-01-16T08:44:27;-1.80;99.90
2202;DHT22;1107;48.654;9.250;2024-01-16T08:46:54;-1.70;99.90
2202;DHT22;1107;48.654;9.250;2024-01-16T08:49:21;-1.70;99.90
2202;DHT22;1107;48.654;9.250;2024-01-16T08:51:48;-1.80;99.90
2202;DHT22;1107;48.654;9.250;2024-01-16T08:54:14;-1.90;99.90
2202;DHT22;1107;48.654;9.250;2024-01-16T08:56:41;-1.90;99.90
2202;DHT22;1107;48.654;9.250;2024-01-16T08:59:09;-1.90;99.90
2202;DHT22;1107;48.654;9.250;2024-01-16T09:01:36;-1.80;99.90
2202;DHT22;1107;48.654;9.250;2024-01-16T09:04:03;-1.70;99.90
2202;DHT22;1107;48.654;9.250;2024-01-16T09:06:30;-1.70;99.90
2202;DHT22;1107;48.654;9.250;2024-01-16T09:08:56;-1.60;99.90
2202;DHT22;1107;48.654;9.250;2024-01-16T09:11:23;-1.50;99.90
2202;DHT22;1107;48.654;9.250;2024-01-16T09:13:50;-1.30;99.90
2202;DHT22;1107;48.654;9.250;2024-01-16T09:16:18;-1.00;99.90
2202;DHT22;1107;48.654;9.250;2024-01-16T09:18:45;-0.90;99.90
2202;DHT22;1107;48.654;9.250;2024-01-16T09:21:12;-0.80;99.90
2202;DHT22;1107;48.654;9.250;2024-01-16T09:23:39;-0.60;99.90
2202;DHT22;1107;48.654;9.250;2024-01-16T09:26:06;-0.20;99.90
2202;DHT22;1107;48.654;9.250;2024-01-16T09:28:32;0.00;99.90
2202;DHT22;1107;48.654;9.250;2024-01-16T09:30:59;0.50;99.90
2202;DHT22;1107;48.654;9.250;2024-01-16T09:33:27;0.90;99.90
2202;DHT22;1107;48.654;9.250;2024-01-16T09:35:54;1.20;99.90
2202;DHT22;1107;48.654;9.250;2024-01-16T09:38:21;1.50;99.90
2202;DHT22;1107;48.654;9.250;2024-01-16T09:40:47;1.80;99.90
2202;DHT22;1107;48.654;9.250;2024-01-16T09:43:16;1.80;99.90
2202;DHT22;1107;48.654;9.250;2024-01-16T09:45:43;2.10;99.90
2202;DHT22;1107;48.654;9.250;2024-01-16T09:48:09;2.30;99.90
2202;DHT22;1107;48.654;9.250;2024-01-16T09:50:38;2.30;99.90
2202;DHT22;1107;48.654;9.250;2024-01-16T09:53:05;2.40;99.90
2202;DHT22;1107;48.654;9.250;2024-01-16T09:55:32;2.70;99.90
2202;DHT22;1107;48.654;9.250;2024-01-16T09:57:58;3.20;99.90
2202;DHT22;1107;48.654;9.250;2024-01-16T10:00:25;3.50;99.90
2202;DHT22;1107;48.654;9.250;2024-01-16T10:02:52;4.00;99.90
2202;DHT22;1107;48.654;9.250;2024-01-16T10:05:24;4.40;99.90
2202;DHT22;1107;48.654;9.250;2024-01-16T10:07:52;4.50;99.90
2202;DHT22;1107;48.654;9.250;2024-01-16T10:10:19;4.70;99.90
2202;DHT22;1107;48.654;9.250;2024-01-16T10:12:47;5.20;99.90
2202;DHT22;1107;48.654;9.250;2024-01-16T10:15:15;5.80;99.90
2202;DHT22;1107;48.654;9.250;2024-01-16T10:17:42;6.50;99.90
2202;DHT22;1107;48.654;9.250;2024-01-16T10:20:10;7.20;99.90
2202;DHT22;1107;48.654;9.250;2024-01-16T10:22:39;7.70;99.90
2202;DHT22;1107;48.654;9.250;2024-01-16T10:25:08;8.30;98.70
2202;DHT22;1107;48.654;9.250;2024-01-16T10:27:35;9.20;97.90
2202;DHT22;1107;48.654;9.250;2024-01-16T10:30:02;9.90;95.50
2202;DHT22;1107;48.654;9.250;2024-01-16T10:32:29;9.90;93.70
2202;DHT22;1107;48.654;9.250;2024-01-16T10:35:03;9.40;92.00
2202;DHT22;1107;48.654;9.250;2024-01-16T10:37:30;9.90;92.10
2202;DHT22;1107;48.654;9.250;2024-01-16T10:39:57;10.10;90.30
2202;DHT22;1107;48.654;9.250;2024-01-16T10:42:25;9.60;90.90
2202;DHT22;1107;48.654;9.250;2024-01-16T10:44:52;9.60;90.70
2202;DHT22;1107;48.654;9.250;2024-01-16T10:47:20;9.70;90.20
2202;DHT22;1107;48.654;9.250;2024-01-16T10:49:47;10.20;88.00
2202;DHT22;1107;48.654;9.250;2024-01-16T10:52:14;10.00;86.40
2202;DHT22;1107;48.654;9.250;2024-01-16T10:54:42;10.40;86.90
2202;DHT22;1107;48.654;9.250;2024-01-16T10:57:10;11.10;84.80
2202;DHT22;1107;48.654;9.250;2024-01-16T10:59:40;11.90;82.10
2202;DHT22;1107;48.654;9.250;2024-01-16T11:02:09;13.00;78.80
2202;DHT22;1107;48.654;9.250;2024-01-16T11:04:37;13.50;75.10
2202;DHT22;1107;48.654;9.250;2024-01-16T11:07:04;13.00;73.00
2202;DHT22;1107;48.654;9.250;2024-01-16T11:09:31;13.50;73.90
2202;DHT22;1107;48.654;9.250;2024-01-16T11:12:00;12.80;71.40
2202;DHT22;1107;48.654;9.250;2024-01-16T11:14:27;11.70;71.80
2202;DHT22;1107;48.654;9.250;2024-01-16T11:16:56;10.70;73.90
2202;DHT22;1107;48.654;9.250;2024-01-16T11:19:22;10.10;75.40
2202;DHT22;1107;48.654;9.250;2024-01-16T11:21:50;10.00;76.60
2202;DHT22;1107;48.654;9.250;2024-01-16T11:24:17;9.80;77.70
2202;DHT22;1107;48.654;9.250;2024-01-16T11:26:44;10.00;77.70
2202;DHT22;1107;48.654;9.250;2024-01-16T11:31:57;11.70;77.10
2202;DHT22;1107;48.654;9.250;2024-01-16T11:37:07;14.20;71.50
2202;DHT22;1107;48.654;9.250;2024-01-16T11:39:34;14.50;99.90
2202;DHT22;1107;48.654;9.250;2024-01-16T11:42:01;14.60;99.90
2202;DHT22;1107;48.654;9.250;2024-01-16T11:44:45;15.50;99.90
2202;DHT22;1107;48.654;9.250;2024-01-16T11:47:17;16.20;99.90
2202;DHT22;1107;48.654;9.250;2024-01-16T11:49:44;16.50;99.90
2202;DHT22;1107;48.654;9.250;2024-01-16T11:52:11;16.80;99.90
2202;DHT22;1107;48.654;9.250;2024-01-16T11:54:38;17.20;99.90
2202;DHT22;1107;48.654;9.250;2024-01-16T11:57:09;17.30;99.90
2202;DHT22;1107;48.654;9.250;2024-01-16T11:59:57;17.40;99.90
2202;DHT22;1107;48.654;9.250;2024-01-16T12:02:26;17.40;99.90
2202;DHT22;1107;48.654;9.250;2024-01-16T12:04:55;17.30;99.90
2202;DHT22;1107;48.654;9.250;2024-01-16T12:07:22;17.50;99.90
2202;DHT22;1107;48.654;9.250;2024-01-16T12:09:48;17.80;99.90
2202;DHT22;1107;48.654;9.250;2024-01-16T12:12:15;17.70;99.90
2202;DHT22;1107;48.654;9.250;2024-01-16T12:14:50;17.80;99.90
2202;DHT22;1107;48.654;9.250;2024-01-16T12:17:17;17.80;99.90
2202;DHT22;1107;48.654;9.250;2024-01-16T12:19:47;17.80;99.90
2202;DHT22;1107;48.654;9.250;2024-01-16T12:22:15;17.90;99.90
2202;DHT22;1107;48.654;9.250;2024-01-16T12:24:42;18.00;99.90
2202;DHT22;1107;48.654;9.250;2024-01-16T12:27:09;18.00;99.90
2202;DHT22;1107;48.654;9.250;2024-01-16T12:29:35;17.90;99.90
2202;DHT22;1107;48.654;9.250;2024-01-16T12:32:06;17.90;99.90
2202;DHT22;1107;48.654;9.250;2024-01-16T12:34:33;18.10;99.90
2202;DHT22;1107;48.654;9.250;2024-01-16T12:37:05;18.00;99.90
2202;DHT22;1107;48.654;9.250;2024-01-16T12:39:32;18.00;99.90
2202;DHT22;1107;48.654;9.250;2024-01-16T12:42:00;18.20;99.90
2202;DHT22;1107;48.654;9.250;2024-01-16T12:44:28;18.50;99.90
2202;DHT22;1107;48.654;9.250;2024-01-16T12:46:54;18.60;99.90
2202;DHT22;1107;48.654;9.250;2024-01-16T12:49:21;18.60;99.90
2202;DHT22;1107;48.654;9.250;2024-01-16T12:51:48;18.60;99.90
2202;DHT22;1107;48.654;9.250;2024-01-16T12:54:17;18.70;99.90
2202;DHT22;1107;48.654;9.250;2024-01-16T12:56:47;18.60;99.90
2202;DHT22;1107;48.654;9.250;2024-01-16T12:59:14;18.60;99.90
2202;DHT22;1107;48.654;9.250;2024-01-16T13:01:42;18.40;99.90
2202;DHT22;1107;48.654;9.250;2024-01-16T13:04:08;18.30;99.90
2202;DHT22;1107;48.654;9.250;2024-01-16T13:06:35;18.20;99.90
2202;DHT22;1107;48.654;9.250;2024-01-16T13:09:06;18.40;99.90
2202;DHT22;1107;48.654;9.250;2024-01-16T13:11:46;18.30;99.90
2202;DHT22;1107;48.654;9.250;2024-01-16T13:14:13;18.50;99.90
2202;DHT22;1107;48.654;9.250;2024-01-16T13:16:39;18.20;99.90
2202;DHT22;1107;48.654;9.250;2024-01-16T13:19:06;18.30;99.90
2202;DHT22;1107;48.654;9.250;2024-01-16T13:21:35;18.70;99.90
2202;DHT22;1107;48.654;9.250;2024-01-16T13:24:02;18.40;99.90
2202;DHT22;1107;48.654;9.250;2024-01-16T13:26:29;18.40;99.90
2202;DHT22;1107;48.654;9.250;2024-01-16T13:28:58;18.30;99.90
2202;DHT22;1107;48.654;9.250;2024-01-16T13:31:25;18.40;99.90
2202;DHT22;1107;48.654;9.250;2024-01-16T13:33:52;18.50;99.90
2202;DHT22;1107;48.654;9.250;2024-01-16T13:36:19;18.40;99.90
2202;DHT22;1107;48.654;9.250;2024-01-16T13:38:47;18.30;99.90
2202;DHT22;1107;48.654;9.250;2024-01-16T13:41:14;18.00;99.90
2202;DHT22;1107;48.654;9.250;2024-01-16T13:43:41;17.70;99.90
2202;DHT22;1107;48.654;9.250;2024-01-16T13:46:09;17.50;99.90
2202;DHT22;1107;48.654;9.250;2024-01-16T13:48:35;17.10;99.90
2202;DHT22;1107;48.654;9.250;2024-01-16T13:51:02;16.50;98.20
2202;DHT22;1107;48.654;9.250;2024-01-16T13:53:30;16.30;97.30
2202;DHT22;1107;48.654;9.250;2024-01-16T13:55:56;16.20;96.90
2202;DHT22;1107;48.654;9.250;2024-01-16T13:58:23;16.00;96.20
2202;DHT22;1107;48.654;9.250;2024-01-16T14:00:50;15.90;96.00
2202;DHT22;1107;48.654;9.250;2024-01-16T14:03:18;15.80;96.10
2202;DHT22;1107;48.654;9.250;2024-01-16T14:05:45;15.80;95.40
2202;DHT22;1107;48.654;9.250;2024-01-16T14:08:12;15.80;95.30
2202;DHT22;1107;48.654;9.250;2024-01-16T14:10:39;16.00;95.90
2202;DHT22;1107;48.654;9.250;2024-01-16T14:13:06;16.00;95.70
2202;DHT22;1107;48.654;9.250;2024-01-16T14:15:33;15.90;94.90
2202;DHT22;1107;48.654;9.250;2024-01-16T14:18:00;15.70;94.60
2202;DHT22;1107;48.654;9.250;2024-01-16T14:20:29;15.70;94.30
2202;DHT22;1107;48.654;9.250;2024-01-16T14:22:56;15.70;93.90
2202;DHT22;1107;48.654;9.250;2024-01-16T14:25:23;15.50;94.00
2202;DHT22;1107;48.654;9.250;2024-01-16T14:27:55;15.40;93.10
2202;DHT22;1107;48.654;9.250;2024-01-16T14:30:23;14.90;90.60
2202;DHT22;1107;48.654;9.250;2024-01-16T14:32:50;14.80;90.50
2202;DHT22;1107;48.654;9.250;2024-01-16T14:35:17;14.60;90.00
2202;DHT22;1107;48.654;9.250;2024-01-16T14:37:46;14.60;88.50
2202;DHT22;1107;48.654;9.250;2024-01-16T14:40:13;14.40;88.40
2202;DHT22;1107;48.654;9.250;2024-01-16T14:42:45;13.70;83.30
2202;DHT22;1107;48.654;9.250;2024-01-16T14:45:13;13.50;80.40
2202;DHT22;1107;48.654;9.250;2024-01-16T14:47:40;13.30;80.40
2202;DHT22;1107;48.654;9.250;2024-01-16T14:50:07;13.10;79.40
2202;DHT22;1107;48.654;9.250;2024-01-16T14:52:35;13.00;78.80
2202;DHT22;1107;48.654;9.250;2024-01-16T14:55:03;12.70;77.40
2202;DHT22;1107;48.654;9.250;2024-01-16T14:57:32;12.60;76.80
2202;DHT22;1107;48.654;9.250;2024-01-16T15:00:06;12.60;75.40
2202;DHT22;1107;48.654;9.250;2024-01-16T15:02:39;12.50;75.40
2202;DHT22;1107;48.654;9.250;2024-01-16T15:05:06;12.40;75.70
2202;DHT22;1107;48.654;9.250;2024-01-16T15:07:33;12.00;72.50
2202;DHT22;1107;48.654;9.250;2024-01-16T15:10:00;12.00;72.10
2202;DHT22;1107;48.654;9.250;2024-01-16T15:12:28;11.80;71.20
2202;DHT22;1107;48.654;9.250;2024-01-16T15:14:55;11.20;66.70
2202;DHT22;1107;48.654;9.250;2024-01-16T15:17:22;11.00;66.20
2202;DHT22;1107;48.654;9.250;2024-01-16T15:19:48;10.20;61.40
2202;DHT22;1107;48.654;9.250;2024-01-16T15:22:15;9.10;55.80
2202;DHT22;1107;48.654;9.250;2024-01-16T15:24:42;8.30;53.70
2202;DHT22;1107;48.654;9.250;2024-01-16T15:27:09;8.10;54.40
2202;DHT22;1107;48.654;9.250;2024-01-16T15:29:37;8.00;54.70
2202;DHT22;1107;48.654;9.250;2024-01-16T15:32:04;7.50;54.30
2202;DHT22;1107;48.654;9.250;2024-01-16T15:34:31;7.10;53.00
2202;DHT22;1107;48.654;9.250;2024-01-16T15:36:57;6.50;51.00
2202;DHT22;1107;48.654;9.250;2024-01-16T15:39:24;5.80;46.70
2202;DHT22;1107;48.654;9.250;2024-01-16T15:41:51;5.10;45.40
2202;DHT22;1107;48.654;9.250;2024-01-16T15:44:18;4.60;43.30
2202;DHT22;1107;48.654;9.250;2024-01-16T15:46:57;4.00;41.70
2202;DHT22;1107;48.654;9.250;2024-01-16T15:49:24;3.60;41.80
2202;DHT22;1107;48.654;9.250;2024-01-16T15:51:51;3.40;41.60
2202;DHT22;1107;48.654;9.250;2024-01-16T15:54:18;3.10;42.10
2202;DHT22;1107;48.654;9.250;2024-01-16T15:56:45;2.80;44.10
2202;DHT22;1107;48.654;9.250;2024-01-16T15:59:12;2.60;44.90
2202;DHT22;1107;48.654;9.250;2024-01-16T16:01:39;2.40;44.80
2202;DHT22;1107;48.654;9.250;2024-01-16T16:04:07;2.20;45.60
2202;DHT22;1107;48.654;9.250;2024-01-16T16:06:36;2.00;45.50
2202;DHT22;1107;48.654;9.250;2024-01-16T16:09:03;1.80;47.40
2202;DHT22;1107;48.654;9.250;2024-01-16T16:11:33;1.70;49.00